sensor_id;sensor_type;location;lat;lon;timestamp;P1;durP1;ratioP1;P2;durP2;ratioP2
24713;SDS011;12820;51.580;5.010;2022-11-24T00:00:35;23.05;;;3.80;;
24713;SDS011;12820;51.580;5.010;2022-11-24T00:05:37;21.90;;;3.20;;
24713;SDS011;12820;51.580;5.010;2022-11-24T00:10:39;21.40;;;3.42;;
24713;SDS011;12820;51.580;5.010;2022-11-24T00:15:41;20.23;;;2.72;;
24713;SDS011;12820;51.580;5.010;2022-11-24T00:20:50;19.17;;;2.83;;
24713;SDS011;12820;51.580;5.010;2022-11-24T00:25:52;21.80;;;2.78;;
24713;SDS011;12820;51.580;5.010;2022-11-24T00:30:55;16.65;;;2.42;;
24713;SDS011;12820;51.580;5.010;2022-11-24T00:35:57;21.90;;;2.45;;
24713;SDS011;12820;51.580;5.010;2022-11-24T00:41:00;18.58;;;2.85;;
24713;SDS011;12820;51.580;5.010;2022-11-24T00:46:03;16.42;;;2.55;;
24713;SDS011;12820;51.580;5.010;2022-11-24T00:51:06;18.48;;;2.42;;
24713;SDS011;12820;51.580;5.010;2022-11-24T00:56:10;21.25;;;2.75;;
24713;SDS011;12820;51.580;5.010;2022-11-24T01:01:14;18.98;;;2.70;;
24713;SDS011;12820;51.580;5.010;2022-11-24T01:06:23;16.17;;;2.33;;
24713;SDS011;12820;51.580;5.010;2022-11-24T01:11:33;19.63;;;2.78;;
24713;SDS011;12820;51.580;5.010;2022-11-24T01:17:06;16.42;;;2.33;;
24713;SDS011;12820;51.580;5.010;2022-11-24T01:22:08;11.27;;;2.22;;
24713;SDS011;12820;51.580;5.010;2022-11-24T01:27:10;16.95;;;2.67;;
24713;SDS011;12820;51.580;5.010;2022-11-24T01:32:12;19.80;;;2.97;;
24713;SDS011;12820;51.580;5.010;2022-11-24T01:37:14;16.75;;;2.53;;
24713;SDS011;12820;51.580;5.010;2022-11-24T01:42:16;19.08;;;2.70;;
24713;SDS011;12820;51.580;5.010;2022-11-24T01:52:42;21.80;;;2.65;;
24713;SDS011;12820;51.580;5.010;2022-11-24T01:57:53;21.90;;;2.90;;
24713;SDS011;12820;51.580;5.010;2022-11-24T02:03:08;18.67;;;2.50;;
24713;SDS011;12820;51.580;5.010;2022-11-24T02:08:20;20.58;;;2.90;;
24713;SDS011;12820;51.580;5.010;2022-11-24T02:13:28;15.85;;;2.60;;
24713;SDS011;12820;51.580;5.010;2022-11-24T02:18:30;22.60;;;3.08;;
24713;SDS011;12820;51.580;5.010;2022-11-24T02:28:37;19.20;;;3.20;;
24713;SDS011;12820;51.580;5.010;2022-11-24T02:33:39;21.55;;;2.90;;
24713;SDS011;12820;51.580;5.010;2022-11-24T02:38:42;15.55;;;2.90;;
24713;SDS011;12820;51.580;5.010;2022-11-24T02:43:49;19.05;;;2.92;;
24713;SDS011;12820;51.580;5.010;2022-11-24T02:48:55;15.80;;;2.92;;
24713;SDS011;12820;51.580;5.010;2022-11-24T02:53:57;24.63;;;3.25;;
24713;SDS011;12820;51.580;5.010;2022-11-24T02:58:59;17.88;;;2.90;;
24713;SDS011;12820;51.580;5.010;2022-11-24T03:04:02;18.35;;;3.63;;
24713;SDS011;12820;51.580;5.010;2022-11-24T03:09:04;14.70;;;2.67;;
24713;SDS011;12820;51.580;5.010;2022-11-24T03:14:07;24.52;;;3.40;;
24713;SDS011;12820;51.580;5.010;2022-11-24T03:19:09;17.70;;;2.90;;
24713;SDS011;12820;51.580;5.010;2022-11-24T03:24:11;21.40;;;3.05;;
24713;SDS011;12820;51.580;5.010;2022-11-24T03:29:13;22.20;;;3.13;;
24713;SDS011;12820;51.580;5.010;2022-11-24T03:34:15;24.50;;;3.67;;
24713;SDS011;12820;51.580;5.010;2022-11-24T03:39:17;22.65;;;3.17;;
24713;SDS011;12820;51.580;5.010;2022-11-24T03:44:20;25.90;;;3.22;;
24713;SDS011;12820;51.580;5.010;2022-11-24T03:49:22;16.17;;;2.75;;
24713;SDS011;12820;51.580;5.010;2022-11-24T03:54:24;19.00;;;2.90;;
24713;SDS011;12820;51.580;5.010;2022-11-24T03:59:26;13.30;;;2.78;;
24713;SDS011;12820;51.580;5.010;2022-11-24T04:04:28;16.73;;;2.95;;
24713;SDS011;12820;51.580;5.010;2022-11-24T04:09:30;18.60;;;3.20;;
24713;SDS011;12820;51.580;5.010;2022-11-24T04:14:32;16.95;;;2.72;;
24713;SDS011;12820;51.580;5.010;2022-11-24T04:19:35;11.10;;;1.90;;
24713;SDS011;12820;51.580;5.010;2022-11-24T04:24:37;7.07;;;1.42;;
24713;SDS011;12820;51.580;5.010;2022-11-24T04:29:39;11.93;;;2.08;;
24713;SDS011;12820;51.580;5.010;2022-11-24T04:34:41;8.55;;;1.45;;
24713;SDS011;12820;51.580;5.010;2022-11-24T04:39:43;15.40;;;2.17;;
24713;SDS011;12820;51.580;5.010;2022-11-24T04:44:47;6.88;;;1.98;;
24713;SDS011;12820;51.580;5.010;2022-11-24T04:49:49;9.75;;;2.10;;
24713;SDS011;12820;51.580;5.010;2022-11-24T04:54:51;7.05;;;2.03;;
24713;SDS011;12820;51.580;5.010;2022-11-24T04:59:53;7.07;;;1.83;;
24713;SDS011;12820;51.580;5.010;2022-11-24T05:04:56;8.77;;;2.15;;
24713;SDS011;12820;51.580;5.010;2022-11-24T05:09:58;9.30;;;2.35;;
24713;SDS011;12820;51.580;5.010;2022-11-24T05:15:18;8.50;;;2.00;;
24713;SDS011;12820;51.580;5.010;2022-11-24T05:20:20;9.43;;;2.25;;
24713;SDS011;12820;51.580;5.010;2022-11-24T05:25:22;9.05;;;2.13;;
24713;SDS011;12820;51.580;5.010;2022-11-24T05:30:24;11.48;;;2.00;;
24713;SDS011;12820;51.580;5.010;2022-11-24T05:35:26;10.30;;;1.67;;
24713;SDS011;12820;51.580;5.010;2022-11-24T05:40:29;9.10;;;1.58;;
24713;SDS011;12820;51.580;5.010;2022-11-24T05:45:32;8.60;;;1.65;;
24713;SDS011;12820;51.580;5.010;2022-11-24T05:50:34;6.95;;;1.35;;
24713;SDS011;12820;51.580;5.010;2022-11-24T05:55:36;5.53;;;1.52;;
24713;SDS011;12820;51.580;5.010;2022-11-24T06:00:39;8.07;;;1.30;;
24713;SDS011;12820;51.580;5.010;2022-11-24T06:05:44;7.38;;;1.73;;
24713;SDS011;12820;51.580;5.010;2022-11-24T06:10:47;6.57;;;1.60;;
24713;SDS011;12820;51.580;5.010;2022-11-24T06:15:49;6.72;;;1.60;;
24713;SDS011;12820;51.580;5.010;2022-11-24T06:20:51;9.05;;;1.90;;
24713;SDS011;12820;51.580;5.010;2022-11-24T06:26:11;10.48;;;2.03;;
24713;SDS011;12820;51.580;5.010;2022-11-24T06:31:14;6.47;;;1.50;;
24713;SDS011;12820;51.580;5.010;2022-11-24T06:36:16;10.13;;;2.28;;
24713;SDS011;12820;51.580;5.010;2022-11-24T06:41:19;12.70;;;2.22;;
24713;SDS011;12820;51.580;5.010;2022-11-24T06:46:21;13.00;;;2.50;;
24713;SDS011;12820;51.580;5.010;2022-11-24T06:51:23;10.20;;;2.47;;
24713;SDS011;12820;51.580;5.010;2022-11-24T06:56:27;7.15;;;2.17;;
24713;SDS011;12820;51.580;5.010;2022-11-24T07:01:29;11.60;;;2.53;;
24713;SDS011;12820;51.580;5.010;2022-11-24T07:06:31;15.45;;;3.03;;
24713;SDS011;12820;51.580;5.010;2022-11-24T07:11:33;14.27;;;2.30;;
24713;SDS011;12820;51.580;5.010;2022-11-24T07:16:35;12.70;;;2.17;;
24713;SDS011;12820;51.580;5.010;2022-11-24T07:21:37;9.82;;;2.08;;
24713;SDS011;12820;51.580;5.010;2022-11-24T07:26:39;9.35;;;2.10;;
24713;SDS011;12820;51.580;5.010;2022-11-24T07:31:41;14.38;;;2.08;;
24713;SDS011;12820;51.580;5.010;2022-11-24T07:36:44;10.88;;;1.95;;
24713;SDS011;12820;51.580;5.010;2022-11-24T07:41:46;12.52;;;1.90;;
24713;SDS011;12820;51.580;5.010;2022-11-24T07:46:48;12.98;;;2.38;;
24713;SDS011;12820;51.580;5.010;2022-11-24T07:51:52;9.02;;;2.00;;
24713;SDS011;12820;51.580;5.010;2022-11-24T07:56:54;9.30;;;1.67;;
24713;SDS011;12820;51.580;5.010;2022-11-24T08:01:56;12.18;;;1.90;;
24713;SDS011;12820;51.580;5.010;2022-11-24T08:06:58;6.95;;;2.00;;
24713;SDS011;12820;51.580;5.010;2022-11-24T08:12:00;7.45;;;1.70;;
24713;SDS011;12820;51.580;5.010;2022-11-24T08:17:02;11.65;;;2.28;;
24713;SDS011;12820;51.580;5.010;2022-11-24T08:22:04;9.25;;;1.60;;
24713;SDS011;12820;51.580;5.010;2022-11-24T08:27:06;11.30;;;1.83;;
24713;SDS011;12820;51.580;5.010;2022-11-24T08:32:08;14.40;;;2.20;;
24713;SDS011;12820;51.580;5.010;2022-11-24T08:37:11;9.77;;;1.63;;
24713;SDS011;12820;51.580;5.010;2022-11-24T08:42:13;13.52;;;1.77;;
24713;SDS011;12820;51.580;5.010;2022-11-24T08:47:15;10.55;;;1.90;;
24713;SDS011;12820;51.580;5.010;2022-11-24T08:52:17;16.92;;;2.33;;
24713;SDS011;12820;51.580;5.010;2022-11-24T08:57:19;17.85;;;2.50;;
24713;SDS011;12820;51.580;5.010;2022-11-24T09:02:22;10.95;;;2.10;;
24713;SDS011;12820;51.580;5.010;2022-11-24T09:07:24;12.30;;;2.10;;
24713;SDS011;12820;51.580;5.010;2022-11-24T09:12:26;17.40;;;2.40;;
24713;SDS011;12820;51.580;5.010;2022-11-24T09:17:29;14.73;;;2.28;;
24713;SDS011;12820;51.580;5.010;2022-11-24T09:22:31;16.63;;;2.78;;
24713;SDS011;12820;51.580;5.010;2022-11-24T09:27:33;10.63;;;2.03;;
24713;SDS011;12820;51.580;5.010;2022-11-24T09:32:36;15.15;;;2.67;;
24713;SDS011;12820;51.580;5.010;2022-11-24T09:37:38;14.70;;;2.20;;
24713;SDS011;12820;51.580;5.010;2022-11-24T09:42:46;13.52;;;2.80;;
24713;SDS011;12820;51.580;5.010;2022-11-24T09:48:41;19.88;;;3.10;;
24713;SDS011;12820;51.580;5.010;2022-11-24T09:53:30;24.05;;;3.67;;
24713;SDS011;12820;51.580;5.010;2022-11-24T09:58:46;20.42;;;3.10;;
24713;SDS011;12820;51.580;5.010;2022-11-24T10:03:52;16.00;;;3.13;;
24713;SDS011;12820;51.580;5.010;2022-11-24T10:20:04;22.08;;;3.25;;
24713;SDS011;12820;51.580;5.010;2022-11-24T10:25:11;20.42;;;3.20;;
24713;SDS011;12820;51.580;5.010;2022-11-24T10:30:20;18.80;;;3.35;;
24713;SDS011;12820;51.580;5.010;2022-11-24T10:35:28;16.98;;;2.80;;
24713;SDS011;12820;51.580;5.010;2022-11-24T10:40:40;17.80;;;3.05;;
24713;SDS011;12820;51.580;5.010;2022-11-24T10:45:59;14.93;;;3.03;;
24713;SDS011;12820;51.580;5.010;2022-11-24T10:56:44;13.75;;;3.13;;
24713;SDS011;12820;51.580;5.010;2022-11-24T11:01:47;23.67;;;3.00;;
24713;SDS011;12820;51.580;5.010;2022-11-24T11:06:49;16.50;;;3.03;;
24713;SDS011;12820;51.580;5.010;2022-11-24T11:11:52;24.73;;;2.85;;
24713;SDS011;12820;51.580;5.010;2022-11-24T11:16:54;18.10;;;3.20;;
24713;SDS011;12820;51.580;5.010;2022-11-24T11:21:59;13.15;;;2.63;;
24713;SDS011;12820;51.580;5.010;2022-11-24T11:27:07;17.85;;;3.30;;
24713;SDS011;12820;51.580;5.010;2022-11-24T11:32:18;21.80;;;3.00;;
24713;SDS011;12820;51.580;5.010;2022-11-24T11:37:46;22.33;;;2.65;;
24713;SDS011;12820;51.580;5.010;2022-11-24T11:42:50;18.70;;;2.58;;
24713;SDS011;12820;51.580;5.010;2022-11-24T11:48:11;18.60;;;2.70;;
24713;SDS011;12820;51.580;5.010;2022-11-24T12:15:21;19.65;;;2.65;;
24713;SDS011;12820;51.580;5.010;2022-11-24T12:31:20;18.00;;;2.53;;
24713;SDS011;12820;51.580;5.010;2022-11-24T12:52:52;12.82;;;2.10;;
24713;SDS011;12820;51.580;5.010;2022-11-24T12:58:09;15.57;;;2.53;;
24713;SDS011;12820;51.580;5.010;2022-11-24T13:08:49;16.35;;;2.58;;
24713;SDS011;12820;51.580;5.010;2022-11-24T13:19:16;15.23;;;2.35;;
24713;SDS011;12820;51.580;5.010;2022-11-24T13:24:23;10.07;;;2.00;;
24713;SDS011;12820;51.580;5.010;2022-11-24T13:39:49;9.65;;;1.73;;
24713;SDS011;12820;51.580;5.010;2022-11-24T14:01:11;12.50;;;2.28;;
24713;SDS011;12820;51.580;5.010;2022-11-24T14:06:35;14.68;;;2.28;;
24713;SDS011;12820;51.580;5.010;2022-11-24T14:11:40;11.43;;;1.98;;
24713;SDS011;12820;51.580;5.010;2022-11-24T14:16:43;10.45;;;1.90;;
24713;SDS011;12820;51.580;5.010;2022-11-24T14:21:45;16.40;;;2.38;;
24713;SDS011;12820;51.580;5.010;2022-11-24T14:26:47;17.02;;;2.47;;
24713;SDS011;12820;51.580;5.010;2022-11-24T14:31:54;13.85;;;2.03;;
24713;SDS011;12820;51.580;5.010;2022-11-24T14:36:58;12.82;;;2.15;;
24713;SDS011;12820;51.580;5.010;2022-11-24T14:42:21;16.55;;;2.13;;
24713;SDS011;12820;51.580;5.010;2022-11-24T14:52:45;13.70;;;2.40;;
24713;SDS011;12820;51.580;5.010;2022-11-24T14:57:53;11.55;;;2.45;;
24713;SDS011;12820;51.580;5.010;2022-11-24T15:08:01;16.33;;;2.63;;
24713;SDS011;12820;51.580;5.010;2022-11-24T15:13:05;19.38;;;2.40;;
24713;SDS011;12820;51.580;5.010;2022-11-24T15:23:42;16.88;;;2.30;;
24713;SDS011;12820;51.580;5.010;2022-11-24T15:28:46;11.20;;;2.55;;
24713;SDS011;12820;51.580;5.010;2022-11-24T15:33:48;17.45;;;2.55;;
24713;SDS011;12820;51.580;5.010;2022-11-24T15:38:51;13.77;;;2.25;;
24713;SDS011;12820;51.580;5.010;2022-11-24T15:43:53;22.23;;;3.03;;
24713;SDS011;12820;51.580;5.010;2022-11-24T15:49:00;14.98;;;2.58;;
24713;SDS011;12820;51.580;5.010;2022-11-24T15:54:02;13.45;;;2.40;;
24713;SDS011;12820;51.580;5.010;2022-11-24T15:59:04;14.77;;;2.55;;
24713;SDS011;12820;51.580;5.010;2022-11-24T16:04:06;14.70;;;2.28;;
24713;SDS011;12820;51.580;5.010;2022-11-24T16:09:11;18.38;;;3.00;;
24713;SDS011;12820;51.580;5.010;2022-11-24T16:14:15;17.05;;;2.97;;
24713;SDS011;12820;51.580;5.010;2022-11-24T16:19:17;19.55;;;4.22;;
24713;SDS011;12820;51.580;5.010;2022-11-24T16:24:20;23.00;;;4.40;;
24713;SDS011;12820;51.580;5.010;2022-11-24T16:29:22;18.98;;;4.05;;
24713;SDS011;12820;51.580;5.010;2022-11-24T16:34:24;26.55;;;4.57;;
24713;SDS011;12820;51.580;5.010;2022-11-24T16:39:27;18.00;;;3.40;;
24713;SDS011;12820;51.580;5.010;2022-11-24T16:44:29;18.92;;;3.83;;
24713;SDS011;12820;51.580;5.010;2022-11-24T16:49:31;25.10;;;4.50;;
24713;SDS011;12820;51.580;5.010;2022-11-24T16:54:33;19.77;;;3.55;;
24713;SDS011;12820;51.580;5.010;2022-11-24T16:59:35;21.95;;;5.68;;
24713;SDS011;12820;51.580;5.010;2022-11-24T17:04:37;22.27;;;4.20;;
24713;SDS011;12820;51.580;5.010;2022-11-24T17:09:40;20.38;;;3.70;;
24713;SDS011;12820;51.580;5.010;2022-11-24T17:14:42;18.20;;;3.60;;
24713;SDS011;12820;51.580;5.010;2022-11-24T17:20:04;13.82;;;3.67;;
24713;SDS011;12820;51.580;5.010;2022-11-24T17:25:06;16.45;;;3.47;;
24713;SDS011;12820;51.580;5.010;2022-11-24T17:30:09;15.98;;;3.90;;
24713;SDS011;12820;51.580;5.010;2022-11-24T17:35:12;17.70;;;3.92;;
24713;SDS011;12820;51.580;5.010;2022-11-24T17:40:15;17.38;;;3.15;;
24713;SDS011;12820;51.580;5.010;2022-11-24T17:45:35;15.70;;;3.22;;
24713;SDS011;12820;51.580;5.010;2022-11-24T17:50:37;19.63;;;3.92;;
24713;SDS011;12820;51.580;5.010;2022-11-24T17:55:39;17.65;;;3.90;;
24713;SDS011;12820;51.580;5.010;2022-11-24T18:00:41;29.23;;;6.18;;
24713;SDS011;12820;51.580;5.010;2022-11-24T18:05:43;19.75;;;3.33;;
24713;SDS011;12820;51.580;5.010;2022-11-24T18:10:46;16.60;;;3.05;;
24713;SDS011;12820;51.580;5.010;2022-11-24T18:15:48;22.23;;;4.13;;
24713;SDS011;12820;51.580;5.010;2022-11-24T18:20:53;25.15;;;4.55;;
24713;SDS011;12820;51.580;5.010;2022-11-24T18:25:57;17.33;;;4.57;;
24713;SDS011;12820;51.580;5.010;2022-11-24T18:31:05;13.65;;;4.20;;
24713;SDS011;12820;51.580;5.010;2022-11-24T18:36:11;15.00;;;3.90;;
24713;SDS011;12820;51.580;5.010;2022-11-24T18:41:15;19.15;;;3.78;;
24713;SDS011;12820;51.580;5.010;2022-11-24T18:46:18;14.80;;;3.33;;
24713;SDS011;12820;51.580;5.010;2022-11-24T18:51:20;24.30;;;5.07;;
24713;SDS011;12820;51.580;5.010;2022-11-24T18:56:24;22.30;;;3.67;;
24713;SDS011;12820;51.580;5.010;2022-11-24T19:01:27;17.55;;;4.57;;
24713;SDS011;12820;51.580;5.010;2022-11-24T19:06:31;17.15;;;3.70;;
24713;SDS011;12820;51.580;5.010;2022-11-24T19:11:35;17.77;;;3.17;;
24713;SDS011;12820;51.580;5.010;2022-11-24T19:16:39;15.13;;;3.50;;
24713;SDS011;12820;51.580;5.010;2022-11-24T19:21:42;20.52;;;3.78;;
24713;SDS011;12820;51.580;5.010;2022-11-24T19:26:44;13.45;;;3.10;;
24713;SDS011;12820;51.580;5.010;2022-11-24T19:31:46;23.05;;;5.15;;
24713;SDS011;12820;51.580;5.010;2022-11-24T19:36:49;23.15;;;3.92;;
24713;SDS011;12820;51.580;5.010;2022-11-24T19:41:51;19.23;;;3.38;;
24713;SDS011;12820;51.580;5.010;2022-11-24T19:46:53;21.48;;;3.83;;
24713;SDS011;12820;51.580;5.010;2022-11-24T19:51:56;18.50;;;4.05;;
24713;SDS011;12820;51.580;5.010;2022-11-24T19:56:58;16.02;;;3.40;;
24713;SDS011;12820;51.580;5.010;2022-11-24T20:02:00;17.58;;;3.40;;
24713;SDS011;12820;51.580;5.010;2022-11-24T20:07:03;22.80;;;3.75;;
24713;SDS011;12820;51.580;5.010;2022-11-24T20:12:05;16.25;;;4.35;;
24713;SDS011;12820;51.580;5.010;2022-11-24T20:17:08;15.25;;;3.40;;
24713;SDS011;12820;51.580;5.010;2022-11-24T20:22:10;17.65;;;3.30;;
24713;SDS011;12820;51.580;5.010;2022-11-24T20:27:12;13.93;;;3.03;;
24713;SDS011;12820;51.580;5.010;2022-11-24T20:32:14;14.95;;;3.10;;
24713;SDS011;12820;51.580;5.010;2022-11-24T20:37:20;16.38;;;3.47;;
24713;SDS011;12820;51.580;5.010;2022-11-24T20:42:23;18.48;;;3.10;;
24713;SDS011;12820;51.580;5.010;2022-11-24T20:47:25;10.98;;;2.83;;
24713;SDS011;12820;51.580;5.010;2022-11-24T20:52:27;15.30;;;3.47;;
24713;SDS011;12820;51.580;5.010;2022-11-24T20:57:29;17.88;;;3.40;;
24713;SDS011;12820;51.580;5.010;2022-11-24T21:02:31;12.82;;;2.80;;
24713;SDS011;12820;51.580;5.010;2022-11-24T21:07:34;22.42;;;3.72;;
24713;SDS011;12820;51.580;5.010;2022-11-24T21:12:36;16.40;;;3.95;;
24713;SDS011;12820;51.580;5.010;2022-11-24T21:17:38;24.73;;;3.83;;
24713;SDS011;12820;51.580;5.010;2022-11-24T21:22:40;19.98;;;3.10;;
24713;SDS011;12820;51.580;5.010;2022-11-24T21:27:42;18.67;;;3.88;;
24713;SDS011;12820;51.580;5.010;2022-11-24T21:32:44;16.27;;;2.88;;
24713;SDS011;12820;51.580;5.010;2022-11-24T21:37:47;15.52;;;2.83;;
24713;SDS011;12820;51.580;5.010;2022-11-24T21:42:49;16.30;;;3.28;;
24713;SDS011;12820;51.580;5.010;2022-11-24T21:47:51;21.83;;;3.28;;
24713;SDS011;12820;51.580;5.010;2022-11-24T21:52:53;15.98;;;3.33;;
24713;SDS011;12820;51.580;5.010;2022-11-24T21:58:04;16.42;;;2.95;;
24713;SDS011;12820;51.580;5.010;2022-11-24T22:03:06;19.75;;;3.53;;
24713;SDS011;12820;51.580;5.010;2022-11-24T22:08:09;11.98;;;2.97;;
24713;SDS011;12820;51.580;5.010;2022-11-24T22:13:11;16.02;;;3.33;;
24713;SDS011;12820;51.580;5.010;2022-11-24T22:18:13;20.40;;;3.30;;
24713;SDS011;12820;51.580;5.010;2022-11-24T22:23:15;17.90;;;3.28;;
24713;SDS011;12820;51.580;5.010;2022-11-24T22:28:17;22.00;;;3.33;;
24713;SDS011;12820;51.580;5.010;2022-11-24T22:33:19;17.75;;;3.15;;
24713;SDS011;12820;51.580;5.010;2022-11-24T22:38:21;16.10;;;3.50;;
24713;SDS011;12820;51.580;5.010;2022-11-24T22:43:23;19.52;;;3.13;;
24713;SDS011;12820;51.580;5.010;2022-11-24T22:48:25;16.25;;;3.17;;
24713;SDS011;12820;51.580;5.010;2022-11-24T22:53:28;15.85;;;3.50;;
24713;SDS011;12820;51.580;5.010;2022-11-24T22:58:30;18.38;;;3.25;;
24713;SDS011;12820;51.580;5.010;2022-11-24T23:03:33;20.30;;;3.15;;
24713;SDS011;12820;51.580;5.010;2022-11-24T23:08:36;18.67;;;3.33;;
24713;SDS011;12820;51.580;5.010;2022-11-24T23:13:39;22.05;;;3.08;;
24713;SDS011;12820;51.580;5.010;2022-11-24T23:18:42;26.00;;;3.97;;
24713;SDS011;12820;51.580;5.010;2022-11-24T23:23:45;30.05;;;3.92;;
24713;SDS011;12820;51.580;5.010;2022-11-24T23:28:48;21.83;;;2.92;;
24713;SDS011;12820;51.580;5.010;2022-11-24T23:33:52;19.48;;;3.08;;
24713;SDS011;12820;51.580;5.010;2022-11-24T23:38:54;29.15;;;3.55;;
24713;SDS011;12820;51.580;5.010;2022-11-24T23:43:56;20.58;;;3.42;;
24713;SDS011;12820;51.580;5.010;2022-11-24T23:48:59;13.43;;;3.90;;
24713;SDS011;12820;51.580;5.010;2022-11-24T23:54:01;19.67;;;2.80;;
24713;SDS011;12820;51.580;5.010;2022-11-24T23:59:09;19.80;;;3.03;;
